createdAt,value
2023-05-14T00:01:14.894Z,5.30
2023-05-14T00:03:41.530Z,6.00
2023-05-14T00:06:08.945Z,7.25
2023-05-14T00:08:35.692Z,5.53
2023-05-14T00:11:02.190Z,5.80
2023-05-14T00:13:28.955Z,8.02
2023-05-14T00:15:55.494Z,7.88
2023-05-14T00:18:21.912Z,6.68
2023-05-14T00:20:48.379Z,6.88
2023-05-14T00:23:14.714Z,5.60
2023-05-14T00:25:41.124Z,7.03
2023-05-14T00:28:07.507Z,5.50
2023-05-14T00:30:34.861Z,6.55
2023-05-14T00:33:01.377Z,6.63
2023-05-14T00:35:27.920Z,6.63
2023-05-14T00:37:54.280Z,7.63
2023-05-14T00:40:25.682Z,8.75
2023-05-14T00:42:52.378Z,8.45
2023-05-14T00:45:18.859Z,7.13
2023-05-14T00:47:45.502Z,7.23
2023-05-14T00:50:12.254Z,7.32
2023-05-14T00:52:39.100Z,6.90
2023-05-14T00:55:06.751Z,9.13
2023-05-14T00:57:34.649Z,9.77
2023-05-14T01:00:01.162Z,6.97
2023-05-14T01:02:27.637Z,6.68
2023-05-14T01:04:54.606Z,9.93
2023-05-14T01:07:37.513Z,7.43
2023-05-14T01:10:45.685Z,9.20
2023-05-14T01:13:33.684Z,7.37
2023-05-14T01:16:01.596Z,6.70
2023-05-14T01:18:28.369Z,7.18
2023-05-14T01:20:54.903Z,7.30
2023-05-14T01:23:21.256Z,7.10
2023-05-14T01:25:47.681Z,7.37
2023-05-14T01:28:19.188Z,8.07
2023-05-14T01:31:27.698Z,7.35
2023-05-14T01:33:58.172Z,11.10
2023-05-14T01:36:25.205Z,8.85
2023-05-14T01:38:51.825Z,6.07
2023-05-14T01:41:19.353Z,9.57
2023-05-14T01:43:45.762Z,7.03
2023-05-14T01:46:12.187Z,6.50
2023-05-14T01:48:38.551Z,7.50
2023-05-14T01:51:05.002Z,6.60
2023-05-14T01:53:31.384Z,6.95
2023-05-14T01:55:57.774Z,6.60
2023-05-14T01:58:24.168Z,6.35
2023-05-14T02:00:50.532Z,7.13
2023-05-14T02:03:16.913Z,9.37
2023-05-14T02:05:43.278Z,8.68
2023-05-14T02:08:09.631Z,11.23
2023-05-14T02:10:36.015Z,7.38
2023-05-14T02:13:03.852Z,7.35
2023-05-14T02:15:30.224Z,9.50
2023-05-14T02:17:56.629Z,8.80
2023-05-14T02:20:23.138Z,7.20
2023-05-14T02:22:49.723Z,7.65
2023-05-14T02:25:16.075Z,6.07
2023-05-14T02:27:42.481Z,7.70
2023-05-14T02:30:09.990Z,7.55
2023-05-14T02:32:36.951Z,7.90
2023-05-14T02:35:03.520Z,8.43
2023-05-14T02:37:29.889Z,8.25
2023-05-14T02:39:56.237Z,7.93
2023-05-14T02:42:22.586Z,8.95
2023-05-14T02:44:48.994Z,8.50
2023-05-14T02:47:15.355Z,8.65
2023-05-14T02:49:41.705Z,9.13
2023-05-14T02:52:08.073Z,10.43
2023-05-14T02:54:34.650Z,9.55
2023-05-14T02:57:01.013Z,9.20
2023-05-14T02:59:27.574Z,10.07
2023-05-14T03:01:54.405Z,11.18
2023-05-14T03:04:21.183Z,9.10
2023-05-14T03:06:47.573Z,9.90
2023-05-14T03:09:14.335Z,12.20
2023-05-14T03:11:40.763Z,9.75
2023-05-14T03:14:07.106Z,9.88
2023-05-14T03:16:33.506Z,10.70
2023-05-14T03:18:59.979Z,9.98
2023-05-14T03:21:26.380Z,9.50
2023-05-14T03:23:53.670Z,10.15
2023-05-14T03:26:21.525Z,11.85
2023-05-14T03:28:47.954Z,9.33
2023-05-14T03:31:14.401Z,11.95
2023-05-14T03:33:41.191Z,10.18
2023-05-14T03:36:07.678Z,11.48
2023-05-14T03:38:34.051Z,9.40
2023-05-14T03:41:00.510Z,10.33
2023-05-14T03:43:26.852Z,11.57
2023-05-14T03:45:53.247Z,13.25
2023-05-14T03:48:20.400Z,11.35
2023-05-14T03:50:46.912Z,11.02
2023-05-14T03:53:13.302Z,10.97
2023-05-14T03:55:39.694Z,11.25
2023-05-14T03:58:10.897Z,11.00
2023-05-14T04:00:37.302Z,11.40
2023-05-14T04:03:03.948Z,11.60
2023-05-14T04:05:30.403Z,11.40
2023-05-14T04:07:58.148Z,11.27
2023-05-14T04:10:24.670Z,8.70
2023-05-14T04:12:51.197Z,12.60
2023-05-14T04:15:17.567Z,14.00
2023-05-14T04:17:43.971Z,10.33
2023-05-14T04:20:10.570Z,13.35
2023-05-14T04:22:36.939Z,11.40
2023-05-14T04:25:03.385Z,12.88
2023-05-14T04:27:29.896Z,10.75
2023-05-14T04:29:56.382Z,12.57
2023-05-14T04:32:22.814Z,11.23
2023-05-14T04:34:49.290Z,11.57
2023-05-14T04:37:15.846Z,11.15
2023-05-14T04:39:42.499Z,10.25
2023-05-14T04:42:09.609Z,10.03
2023-05-14T04:44:37.544Z,10.52
2023-05-14T04:47:04.476Z,10.82
2023-05-14T04:49:31.074Z,11.55
2023-05-14T04:51:57.447Z,9.35
2023-05-14T04:54:24.007Z,10.87
2023-05-14T04:56:51.027Z,11.65
2023-05-14T04:59:17.439Z,10.05
2023-05-14T05:01:43.916Z,10.68
2023-05-14T05:04:10.440Z,13.00
2023-05-14T05:06:36.923Z,10.63
2023-05-14T05:09:03.582Z,11.50
2023-05-14T05:11:29.940Z,11.73
2023-05-14T05:13:56.325Z,10.80
2023-05-14T05:16:22.803Z,11.75
2023-05-14T05:18:49.311Z,10.97
2023-05-14T05:21:15.690Z,10.00
2023-05-14T05:23:42.048Z,11.27
2023-05-14T05:26:08.500Z,9.57
2023-05-14T05:28:34.873Z,8.85
2023-05-14T05:31:01.237Z,10.13
2023-05-14T05:33:27.621Z,8.85
2023-05-14T05:35:53.978Z,9.52
2023-05-14T05:38:20.677Z,9.02
2023-05-14T05:40:47.122Z,8.40
2023-05-14T05:43:15.183Z,8.57
2023-05-14T05:45:41.599Z,10.15
2023-05-14T05:48:08.065Z,8.18
2023-05-14T05:50:34.587Z,8.02
2023-05-14T05:53:00.984Z,11.65
2023-05-14T05:55:27.327Z,9.83
2023-05-14T05:57:53.861Z,10.38
2023-05-14T06:00:20.922Z,8.80
2023-05-14T06:02:47.418Z,9.68
2023-05-14T06:05:13.817Z,7.40
2023-05-14T06:07:40.250Z,7.07
2023-05-14T06:10:07.211Z,8.73
2023-05-14T06:12:33.702Z,6.85
2023-05-14T06:15:00.148Z,9.32
2023-05-14T06:17:27.164Z,9.65
2023-05-14T06:19:53.625Z,6.57
2023-05-14T06:22:20.087Z,8.77
2023-05-14T06:24:46.456Z,7.25
2023-05-14T06:27:12.819Z,5.30
2023-05-14T06:29:39.236Z,6.13
2023-05-14T06:32:06.066Z,6.67
2023-05-14T06:34:32.492Z,5.80
2023-05-14T06:36:59.074Z,6.80
2023-05-14T06:39:25.579Z,5.68
2023-05-14T06:41:51.919Z,6.95
2023-05-14T06:44:19.422Z,7.53
2023-05-14T06:46:45.814Z,5.60
2023-05-14T06:49:12.372Z,7.68
2023-05-14T06:51:39.050Z,5.00
2023-05-14T06:54:05.544Z,6.38
2023-05-14T06:56:31.952Z,5.03
2023-05-14T06:58:58.311Z,5.35
2023-05-14T07:01:24.706Z,5.57
2023-05-14T07:03:51.209Z,5.43
2023-05-14T07:06:17.680Z,5.57
2023-05-14T07:08:45.965Z,6.33
2023-05-14T07:11:16.177Z,5.43
2023-05-14T07:13:42.947Z,6.15
2023-05-14T07:16:12.307Z,6.65
2023-05-14T07:18:38.732Z,5.60
2023-05-14T07:21:06.459Z,6.60
2023-05-14T07:23:36.082Z,4.97
2023-05-14T07:26:03.006Z,7.70
2023-05-14T07:28:29.360Z,5.00
2023-05-14T07:30:55.790Z,7.20
2023-05-14T07:33:22.698Z,6.00
2023-05-14T07:35:49.189Z,6.07
2023-05-14T07:38:15.788Z,6.85
2023-05-14T07:40:42.436Z,5.07
2023-05-14T07:43:09.810Z,6.38
2023-05-14T07:45:37.181Z,5.90
2023-05-14T07:48:03.870Z,4.20
2023-05-14T07:50:30.972Z,3.95
2023-05-14T07:52:57.567Z,3.90
2023-05-14T07:55:23.921Z,4.50
2023-05-14T07:57:50.357Z,5.07
2023-05-14T08:00:17.086Z,6.45
2023-05-14T08:02:44.346Z,5.18
2023-05-14T08:05:10.987Z,6.00
2023-05-14T08:07:37.355Z,6.28
2023-05-14T08:10:04.212Z,4.33
2023-05-14T08:12:30.697Z,4.78
2023-05-14T08:14:57.049Z,4.28
2023-05-14T08:17:23.434Z,6.63
2023-05-14T08:19:49.828Z,4.55
2023-05-14T08:22:16.335Z,5.53
2023-05-14T08:24:43.096Z,5.43
2023-05-14T08:27:09.818Z,5.25
2023-05-14T08:29:36.218Z,4.18
2023-05-14T08:32:11.621Z,4.20
2023-05-14T08:34:43.963Z,5.30
2023-05-14T08:37:10.467Z,4.80
2023-05-14T08:39:36.864Z,5.20
2023-05-14T08:42:06.321Z,5.13
2023-05-14T08:44:45.437Z,4.20
2023-05-14T08:47:15.332Z,5.30
2023-05-14T08:49:47.570Z,4.95
2023-05-14T08:52:18.061Z,5.68
2023-05-14T08:54:45.445Z,5.25
2023-05-14T08:57:13.018Z,5.80
2023-05-14T08:59:39.423Z,4.90
2023-05-14T09:02:06.975Z,4.30
2023-05-14T09:04:34.525Z,5.05
2023-05-14T09:07:02.617Z,5.25
2023-05-14T09:09:29.627Z,4.95
2023-05-14T09:11:56.053Z,5.83
2023-05-14T09:14:22.579Z,4.95
2023-05-14T09:16:50.794Z,5.53
2023-05-14T09:19:21.111Z,4.95
2023-05-14T09:21:49.053Z,5.10
2023-05-14T09:24:21.025Z,4.70
2023-05-14T09:26:51.714Z,4.82
2023-05-14T09:29:18.489Z,4.80
2023-05-14T09:31:45.248Z,4.30
2023-05-14T09:34:11.797Z,4.40
2023-05-14T09:36:38.318Z,4.37
2023-05-14T09:39:04.903Z,4.75
2023-05-14T09:41:31.295Z,4.80
2023-05-14T09:43:57.915Z,5.90
2023-05-14T09:46:24.270Z,4.15
2023-05-14T09:48:50.618Z,6.00
2023-05-14T09:51:20.954Z,5.35
2023-05-14T09:53:47.402Z,6.43
2023-05-14T09:56:14.468Z,4.82
2023-05-14T09:58:40.855Z,4.30
2023-05-14T10:01:07.749Z,4.20
2023-05-14T10:03:34.379Z,5.68
2023-05-14T10:06:05.730Z,5.20
2023-05-14T10:08:36.096Z,7.68
2023-05-14T10:11:08.188Z,5.07
2023-05-14T10:13:40.844Z,6.10
2023-05-14T10:16:20.175Z,4.97
2023-05-14T10:18:51.713Z,4.85
2023-05-14T10:21:20.925Z,5.68
2023-05-14T10:23:48.890Z,5.60
2023-05-14T10:26:15.846Z,3.60
2023-05-14T10:28:43.049Z,5.07
2023-05-14T10:31:10.320Z,3.90
2023-05-14T10:33:52.137Z,3.83
2023-05-14T10:36:18.675Z,7.30
2023-05-14T10:38:45.302Z,7.43
2023-05-14T10:41:18.001Z,5.10
2023-05-14T10:43:44.504Z,4.63
2023-05-14T10:46:13.800Z,4.25
2023-05-14T10:48:44.063Z,3.83
2023-05-14T10:51:11.314Z,4.83
2023-05-14T10:53:42.286Z,3.88
2023-05-14T10:56:10.723Z,4.68
2023-05-14T10:58:38.762Z,3.65
2023-05-14T11:01:09.256Z,4.65
2023-05-14T11:03:41.844Z,4.90
2023-05-14T11:06:10.086Z,4.80
2023-05-14T11:08:36.922Z,4.47
2023-05-14T11:11:03.306Z,4.28
2023-05-14T11:13:30.093Z,4.20
2023-05-14T11:16:00.752Z,7.50
2023-05-14T11:18:33.462Z,4.18
2023-05-14T11:21:01.138Z,4.00
2023-05-14T11:23:28.242Z,3.50
2023-05-14T11:25:56.476Z,5.93
2023-05-14T11:28:24.516Z,4.30
2023-05-14T11:30:51.799Z,4.47
2023-05-14T11:33:19.067Z,4.82
2023-05-14T11:35:46.510Z,7.15
2023-05-14T11:38:21.162Z,6.13
2023-05-14T11:40:58.464Z,6.10
2023-05-14T11:43:28.317Z,5.05
2023-05-14T11:45:55.752Z,4.78
2023-05-14T11:48:24.772Z,4.38
2023-05-14T11:50:52.682Z,6.50
2023-05-14T11:53:20.023Z,3.83
2023-05-14T11:55:48.239Z,5.55
2023-05-14T11:58:15.807Z,3.30
2023-05-14T12:00:44.737Z,5.03
2023-05-14T12:03:11.842Z,3.42
2023-05-14T12:05:41.338Z,4.23
2023-05-14T12:08:27.180Z,3.50
2023-05-14T12:10:54.035Z,3.20
2023-05-14T12:13:20.510Z,5.90
2023-05-14T12:15:58.059Z,3.95
2023-05-14T12:18:25.675Z,3.17
2023-05-14T12:20:52.147Z,4.90
2023-05-14T12:23:29.301Z,5.70
2023-05-14T12:26:00.906Z,3.58
2023-05-14T12:28:28.652Z,3.33
2023-05-14T12:30:59.312Z,3.37
2023-05-14T12:33:28.550Z,4.00
2023-05-14T12:36:00.563Z,3.92
2023-05-14T12:38:31.879Z,3.05
2023-05-14T12:40:58.235Z,5.05
2023-05-14T12:43:24.601Z,3.50
2023-05-14T12:45:50.978Z,3.97
2023-05-14T12:48:17.367Z,4.47
2023-05-14T12:50:43.717Z,6.05
2023-05-14T12:53:10.216Z,4.22
2023-05-14T12:55:36.977Z,2.67
2023-05-14T12:58:03.612Z,3.20
2023-05-14T13:00:29.956Z,3.58
2023-05-14T13:02:56.329Z,3.72
2023-05-14T13:05:22.892Z,4.07
2023-05-14T13:07:52.427Z,2.70
2023-05-14T13:10:19.001Z,3.17
2023-05-14T13:12:45.431Z,3.53
2023-05-14T13:15:11.885Z,2.67
2023-05-14T13:17:38.370Z,4.50
2023-05-14T13:20:05.249Z,3.37
2023-05-14T13:22:31.588Z,3.60
2023-05-14T13:24:58.775Z,3.58
2023-05-14T13:27:25.126Z,3.30
2023-05-14T13:29:51.458Z,2.60
2023-05-14T13:32:17.822Z,2.77
2023-05-14T13:34:44.245Z,2.88
2023-05-14T13:37:10.994Z,4.07
2023-05-14T13:39:37.343Z,2.60
2023-05-14T13:42:03.993Z,3.17
2023-05-14T13:44:30.432Z,3.37
2023-05-14T13:46:56.899Z,2.50
2023-05-14T13:49:23.276Z,2.97
2023-05-14T13:51:49.682Z,3.55
2023-05-14T13:54:16.054Z,4.30
2023-05-14T13:56:42.447Z,3.83
2023-05-14T13:59:08.882Z,3.05
2023-05-14T14:01:35.281Z,4.68
2023-05-14T14:04:01.743Z,3.45
2023-05-14T14:06:30.786Z,2.58
2023-05-14T14:08:57.193Z,2.70
2023-05-14T14:11:23.550Z,3.35
2023-05-14T14:13:49.946Z,3.80
2023-05-14T14:16:16.383Z,5.63
2023-05-14T14:18:43.268Z,3.10
2023-05-14T14:21:10.271Z,4.00
2023-05-14T14:23:36.671Z,3.33
2023-05-14T14:26:03.676Z,3.05
2023-05-14T14:28:30.293Z,3.03
2023-05-14T14:30:56.672Z,4.15
2023-05-14T14:33:23.069Z,3.77
2023-05-14T14:35:49.416Z,3.10
2023-05-14T14:38:15.788Z,3.85
2023-05-14T14:40:42.165Z,3.17
2023-05-14T14:43:08.545Z,2.50
2023-05-14T14:45:34.907Z,3.43
2023-05-14T14:48:22.897Z,2.60
2023-05-14T14:50:49.518Z,2.72
2023-05-14T14:53:15.878Z,3.08
2023-05-14T14:55:42.309Z,3.17
2023-05-14T14:58:08.798Z,4.33
2023-05-14T15:00:35.433Z,2.67
2023-05-14T15:03:01.880Z,2.95
2023-05-14T15:05:28.300Z,2.30
2023-05-14T15:07:54.638Z,2.95
2023-05-14T15:10:20.976Z,2.73
2023-05-14T15:12:47.363Z,2.33
2023-05-14T15:15:13.904Z,3.60
2023-05-14T15:17:40.302Z,2.45
2023-05-14T15:20:07.460Z,3.63
2023-05-14T15:22:33.856Z,4.37
2023-05-14T15:25:00.214Z,2.47
2023-05-14T15:27:26.893Z,2.47
2023-05-14T15:29:53.265Z,4.45
2023-05-14T15:32:19.706Z,2.38
2023-05-14T15:34:46.092Z,2.20
2023-05-14T15:37:12.433Z,2.95
2023-05-14T15:39:38.838Z,2.17
2023-05-14T15:42:05.472Z,2.47
2023-05-14T15:44:32.051Z,4.05
2023-05-14T15:46:59.649Z,2.40
2023-05-14T15:49:25.999Z,2.90
2023-05-14T15:51:52.432Z,2.60
2023-05-14T15:54:18.797Z,4.63
2023-05-14T15:56:45.200Z,2.80
2023-05-14T15:59:11.613Z,3.40
2023-05-14T16:01:38.026Z,2.15
2023-05-14T16:04:04.507Z,2.95
2023-05-14T16:06:31.053Z,3.20
2023-05-14T16:08:57.520Z,3.22
2023-05-14T16:11:23.880Z,2.17
2023-05-14T16:13:50.232Z,2.10
2023-05-14T16:16:16.775Z,2.13
2023-05-14T16:18:43.783Z,3.03
2023-05-14T16:21:10.182Z,2.72
2023-05-14T16:23:36.711Z,2.27
2023-05-14T16:26:03.107Z,1.92
2023-05-14T16:28:29.560Z,2.30
2023-05-14T16:30:55.929Z,2.15
2023-05-14T16:33:22.264Z,1.88
2023-05-14T16:35:49.786Z,1.80
2023-05-14T16:38:16.133Z,1.70
2023-05-14T16:40:42.716Z,2.42
2023-05-14T16:43:09.051Z,1.98
2023-05-14T16:45:37.222Z,1.83
2023-05-14T16:48:04.275Z,2.87
2023-05-14T16:50:30.698Z,2.13
2023-05-14T16:52:57.156Z,2.85
2023-05-14T16:55:23.868Z,2.00
2023-05-14T16:57:50.561Z,2.97
2023-05-14T17:00:17.835Z,2.40
2023-05-14T17:02:44.199Z,1.90
2023-05-14T17:05:10.572Z,2.28
2023-05-14T17:07:39.152Z,1.95
2023-05-14T17:10:06.417Z,2.88
2023-05-14T17:12:32.776Z,1.70
2023-05-14T17:14:59.153Z,2.63
2023-05-14T17:17:25.561Z,2.85
2023-05-14T17:19:51.898Z,1.67
2023-05-14T17:22:18.317Z,1.77
2023-05-14T17:24:44.684Z,2.03
2023-05-14T17:27:11.277Z,4.80
2023-05-14T17:29:37.690Z,1.63
2023-05-14T17:32:04.800Z,3.03
2023-05-14T17:34:31.237Z,2.88
2023-05-14T17:36:57.867Z,1.47
2023-05-14T17:39:24.304Z,2.30
2023-05-14T17:41:51.183Z,2.13
2023-05-14T17:44:17.543Z,2.55
2023-05-14T17:46:45.146Z,2.95
2023-05-14T17:49:11.927Z,2.00
2023-05-14T17:51:38.434Z,1.65
2023-05-14T17:54:04.832Z,1.73
2023-05-14T17:56:31.423Z,2.72
2023-05-14T17:58:57.775Z,2.53
2023-05-14T18:01:24.247Z,1.70
2023-05-14T18:03:50.915Z,4.35
2023-05-14T18:06:17.534Z,2.22
2023-05-14T18:08:43.919Z,3.95
2023-05-14T18:11:10.276Z,2.30
2023-05-14T18:13:36.616Z,3.20
2023-05-14T18:16:03.716Z,3.70
2023-05-14T18:18:30.753Z,3.95
2023-05-14T18:20:57.550Z,5.28
2023-05-14T18:23:23.985Z,5.85
2023-05-14T18:25:50.406Z,6.90
2023-05-14T18:28:16.889Z,12.05
2023-05-14T18:30:43.561Z,8.40
2023-05-14T18:33:10.306Z,3.67
2023-05-14T18:35:36.815Z,2.30
2023-05-14T18:38:03.348Z,5.10
2023-05-14T18:40:29.691Z,5.03
2023-05-14T18:42:56.725Z,2.85
2023-05-14T18:45:24.218Z,3.72
2023-05-14T18:47:51.447Z,4.55
2023-05-14T18:50:17.873Z,3.20
2023-05-14T18:52:44.247Z,2.47
2023-05-14T18:55:10.654Z,2.67
2023-05-14T18:57:37.114Z,2.80
2023-05-14T19:00:05.035Z,3.92
2023-05-14T19:02:31.502Z,2.90
2023-05-14T19:04:57.982Z,2.00
2023-05-14T19:07:24.452Z,2.78
2023-05-14T19:09:51.130Z,2.30
2023-05-14T19:12:17.528Z,3.65
2023-05-14T19:14:43.896Z,3.40
2023-05-14T19:17:10.908Z,3.95
2023-05-14T19:19:37.744Z,4.20
2023-05-14T19:22:04.258Z,3.88
2023-05-14T19:24:30.708Z,3.88
2023-05-14T19:26:57.142Z,2.60
2023-05-14T19:29:23.624Z,4.22
2023-05-14T19:31:50.060Z,3.65
2023-05-14T19:34:16.649Z,3.50
2023-05-14T19:36:43.032Z,3.45
2023-05-14T19:39:09.655Z,3.60
2023-05-14T19:41:36.083Z,3.72
2023-05-14T19:44:02.483Z,3.92
2023-05-14T19:46:28.945Z,3.15
2023-05-14T19:48:55.403Z,3.75
2023-05-14T19:51:21.744Z,3.10
2023-05-14T19:53:48.122Z,5.38
2023-05-14T19:56:15.325Z,2.92
2023-05-14T19:58:41.742Z,2.50
2023-05-14T20:01:08.311Z,2.67
2023-05-14T20:03:34.770Z,3.37
2023-05-14T20:06:01.774Z,3.17
2023-05-14T20:08:29.073Z,3.55
2023-05-14T20:10:55.533Z,3.13
2023-05-14T20:13:23.209Z,2.72
2023-05-14T20:15:51.566Z,4.07
2023-05-14T20:18:17.984Z,3.05
2023-05-14T20:20:44.310Z,3.10
2023-05-14T20:23:10.682Z,3.22
2023-05-14T20:25:37.010Z,4.15
2023-05-14T20:28:04.046Z,3.47
2023-05-14T20:30:30.857Z,4.82
2023-05-14T20:32:57.427Z,4.43
2023-05-14T20:35:23.887Z,3.17
2023-05-14T20:37:50.443Z,4.28
2023-05-14T20:40:17.014Z,2.80
2023-05-14T20:42:43.461Z,5.13
2023-05-14T20:45:10.381Z,2.58
2023-05-14T20:47:36.876Z,3.67
2023-05-14T20:50:04.558Z,3.75
2023-05-14T20:52:30.944Z,4.60
2023-05-14T20:54:58.763Z,3.20
2023-05-14T20:57:27.789Z,4.13
2023-05-14T20:59:54.223Z,3.38
2023-05-14T21:02:20.842Z,3.78
2023-05-14T21:04:47.472Z,3.47
2023-05-14T21:07:13.862Z,4.25
2023-05-14T21:09:40.281Z,3.08
2023-05-14T21:12:06.958Z,5.93
2023-05-14T21:14:33.333Z,4.10
2023-05-14T21:16:59.688Z,4.67
2023-05-14T21:19:26.049Z,4.47
2023-05-14T21:21:52.409Z,4.22
2023-05-14T21:24:18.989Z,4.82
2023-05-14T21:26:45.711Z,5.85
2023-05-14T21:29:12.180Z,3.67
2023-05-14T21:31:38.584Z,2.80
2023-05-14T21:34:05.011Z,3.97
2023-05-14T21:36:31.459Z,3.38
2023-05-14T21:38:57.822Z,4.30
2023-05-14T21:41:24.210Z,3.67
2023-05-14T21:43:50.574Z,4.22
2023-05-14T21:46:16.983Z,3.97
2023-05-14T21:48:43.430Z,6.13
2023-05-14T21:51:10.057Z,4.80
2023-05-14T21:53:36.458Z,5.60
2023-05-14T21:56:02.891Z,5.10
2023-05-14T21:58:29.302Z,5.05
2023-05-14T22:00:55.671Z,6.68
2023-05-14T22:03:22.126Z,3.70
2023-05-14T22:05:49.171Z,4.60
2023-05-14T22:08:17.479Z,6.53
2023-05-14T22:10:44.149Z,6.25
2023-05-14T22:13:10.958Z,5.53
2023-05-14T22:15:37.855Z,3.78
2023-05-14T22:18:04.533Z,4.17
2023-05-14T22:20:31.033Z,5.28
2023-05-14T22:22:57.389Z,5.70
2023-05-14T22:25:23.949Z,4.63
2023-05-14T22:27:50.546Z,5.30
2023-05-14T22:30:16.905Z,3.77
2023-05-14T22:32:43.340Z,3.90
2023-05-14T22:35:09.777Z,5.13
2023-05-14T22:37:36.164Z,4.50
2023-05-14T22:40:05.056Z,7.35
2023-05-14T22:42:31.400Z,6.20
2023-05-14T22:44:57.777Z,5.35
2023-05-14T22:47:25.150Z,5.07
2023-05-14T22:49:51.659Z,3.78
2023-05-14T22:52:18.877Z,3.85
2023-05-14T22:54:46.574Z,5.50
2023-05-14T22:57:12.980Z,5.47
2023-05-14T22:59:39.512Z,3.42
2023-05-14T23:02:06.765Z,4.20
2023-05-14T23:04:33.423Z,3.15
2023-05-14T23:06:59.853Z,6.00
2023-05-14T23:09:26.312Z,4.95
2023-05-14T23:11:52.665Z,3.88
2023-05-14T23:14:19.615Z,3.80
2023-05-14T23:16:46.030Z,3.90
2023-05-14T23:19:12.624Z,5.23
2023-05-14T23:21:39.115Z,3.63
2023-05-14T23:24:05.949Z,7.40
2023-05-14T23:26:32.581Z,4.15
2023-05-14T23:28:58.942Z,3.30
2023-05-14T23:31:25.437Z,4.10
2023-05-14T23:33:51.817Z,3.03
2023-05-14T23:36:18.295Z,3.58
2023-05-14T23:38:44.839Z,4.75
2023-05-14T23:41:11.266Z,3.72
2023-05-14T23:43:37.703Z,3.83
2023-05-14T23:46:04.181Z,4.05
2023-05-14T23:48:30.988Z,4.78
2023-05-14T23:50:57.352Z,3.60
2023-05-14T23:53:23.780Z,4.18
2023-05-14T23:55:50.380Z,5.03
2023-05-14T23:58:16.906Z,4.93
